createdAt,value
2023-09-29T00:00:16.906Z,13.90
2023-09-29T00:02:45.956Z,13.30
2023-09-29T00:05:16.527Z,13.07
2023-09-29T00:07:45.019Z,14.53
2023-09-29T00:10:14.539Z,15.10
2023-09-29T00:12:44.096Z,12.73
2023-09-29T00:15:12.475Z,11.90
2023-09-29T00:17:40.823Z,14.00
2023-09-29T00:20:14.680Z,13.60
2023-09-29T00:22:42.270Z,13.57
2023-09-29T00:25:10.559Z,12.60
2023-09-29T00:27:38.145Z,16.30
2023-09-29T00:30:10.957Z,14.87
2023-09-29T00:32:38.563Z,13.17
2023-09-29T00:35:09.686Z,13.60
2023-09-29T00:37:37.294Z,13.70
2023-09-29T00:40:12.434Z,13.20
2023-09-29T00:42:40.419Z,14.17
2023-09-29T00:45:10.882Z,14.17
2023-09-29T00:47:39.589Z,16.63
2023-09-29T00:50:11.608Z,17.80
2023-09-29T00:52:40.115Z,17.03
2023-09-29T00:55:12.118Z,16.83
2023-09-29T00:57:40.957Z,17.60
2023-09-29T01:00:19.659Z,17.20
2023-09-29T01:02:47.416Z,22.17
2023-09-29T01:05:15.617Z,16.70
2023-09-29T01:07:43.489Z,16.23
2023-09-29T01:10:12.930Z,17.67
2023-09-29T01:12:40.551Z,15.40
2023-09-29T01:15:14.337Z,14.50
2023-09-29T01:17:42.468Z,19.67
2023-09-29T01:20:17.540Z,14.60
2023-09-29T01:22:48.558Z,17.90
2023-09-29T01:25:18.373Z,22.87
2023-09-29T01:27:46.439Z,19.23
2023-09-29T01:30:16.141Z,15.40
2023-09-29T01:32:44.056Z,23.43
2023-09-29T01:35:12.862Z,19.57
2023-09-29T01:37:41.712Z,18.57
2023-09-29T01:40:10.525Z,23.40
2023-09-29T01:42:41.133Z,16.07
2023-09-29T01:45:16.373Z,20.17
2023-09-29T01:47:46.598Z,15.80
2023-09-29T01:50:17.450Z,17.70
2023-09-29T01:52:45.833Z,14.40
2023-09-29T01:55:20.652Z,17.03
2023-09-29T01:57:50.115Z,14.80
2023-09-29T02:00:25.000Z,15.53
2023-09-29T02:02:54.685Z,14.90
2023-09-29T02:05:23.255Z,18.03
2023-09-29T02:07:52.664Z,16.93
2023-09-29T02:10:21.458Z,16.87
2023-09-29T02:12:56.137Z,17.13
2023-09-29T02:15:24.483Z,18.10
2023-09-29T02:17:52.624Z,17.47
2023-09-29T02:20:22.233Z,17.03
2023-09-29T02:22:50.678Z,25.60
2023-09-29T02:25:20.043Z,25.13
2023-09-29T02:27:49.339Z,17.33
2023-09-29T02:30:18.655Z,19.77
2023-09-29T02:32:46.469Z,21.73
2023-09-29T02:35:14.262Z,22.60
2023-09-29T02:37:42.518Z,23.23
2023-09-29T02:40:12.044Z,24.40
2023-09-29T02:42:39.700Z,28.53
2023-09-29T02:45:08.904Z,28.63
2023-09-29T02:47:40.399Z,27.27
2023-09-29T02:50:10.143Z,30.37
2023-09-29T02:52:39.065Z,23.70
2023-09-29T02:55:08.705Z,22.80
2023-09-29T02:57:36.422Z,25.90
2023-09-29T03:00:20.947Z,24.60
2023-09-29T03:02:52.499Z,26.93
2023-09-29T03:05:22.347Z,22.20
2023-09-29T03:07:52.362Z,35.27
2023-09-29T03:10:22.002Z,26.27
2023-09-29T03:12:49.913Z,26.07
2023-09-29T03:15:18.120Z,24.07
2023-09-29T03:17:46.730Z,22.63
2023-09-29T03:20:17.268Z,21.93
2023-09-29T03:22:46.710Z,23.67
2023-09-29T03:25:17.798Z,24.30
2023-09-29T03:27:46.006Z,23.10
2023-09-29T03:30:14.122Z,23.20
2023-09-29T03:32:41.857Z,21.50
2023-09-29T03:35:10.630Z,22.20
2023-09-29T03:37:40.848Z,19.90
2023-09-29T03:40:11.033Z,24.70
2023-09-29T03:42:42.599Z,19.33
2023-09-29T03:45:12.532Z,24.47
2023-09-29T03:47:40.717Z,20.40
2023-09-29T03:50:11.373Z,20.23
2023-09-29T03:52:41.214Z,23.47
2023-09-29T03:55:11.203Z,21.00
2023-09-29T03:57:45.732Z,21.80
2023-09-29T04:00:17.532Z,18.40
2023-09-29T04:02:45.674Z,20.20
2023-09-29T04:05:13.530Z,19.20
2023-09-29T04:07:43.229Z,17.33
2023-09-29T04:10:11.692Z,20.90
2023-09-29T04:12:40.212Z,17.23
2023-09-29T04:15:09.204Z,17.07
2023-09-29T04:17:37.134Z,16.27
2023-09-29T04:20:06.690Z,14.93
2023-09-29T04:22:35.284Z,16.77
2023-09-29T04:25:04.912Z,17.43
2023-09-29T04:27:32.485Z,16.40
2023-09-29T04:30:00.447Z,14.83
2023-09-29T04:32:28.422Z,16.10
2023-09-29T04:34:56.283Z,17.33
2023-09-29T04:37:23.955Z,18.77
2023-09-29T04:39:51.634Z,18.73
2023-09-29T04:42:20.609Z,18.30
2023-09-29T04:44:48.218Z,17.67
2023-09-29T04:47:16.095Z,16.27
2023-09-29T04:49:43.900Z,20.40
2023-09-29T04:52:11.589Z,16.50
2023-09-29T04:54:39.302Z,18.60
2023-09-29T04:57:06.924Z,16.10
2023-09-29T04:59:35.934Z,16.57
2023-09-29T05:02:03.727Z,15.20
2023-09-29T05:04:31.396Z,15.53
2023-09-29T05:06:59.265Z,15.90
2023-09-29T05:09:26.913Z,14.80
2023-09-29T05:11:54.577Z,19.20
2023-09-29T05:14:22.559Z,24.60
2023-09-29T05:16:52.065Z,15.10
2023-09-29T05:19:19.775Z,15.63
2023-09-29T05:21:47.582Z,16.80
2023-09-29T05:24:15.250Z,16.63
2023-09-29T05:26:42.874Z,14.97
2023-09-29T05:29:10.486Z,20.43
2023-09-29T05:31:38.149Z,15.43
2023-09-29T05:34:07.106Z,16.60
2023-09-29T05:36:34.803Z,22.50
2023-09-29T05:39:02.376Z,16.43
2023-09-29T05:41:30.400Z,16.93
2023-09-29T05:43:58.038Z,17.93
2023-09-29T05:46:25.663Z,16.50
2023-09-29T05:48:53.346Z,17.77
2023-09-29T05:51:22.413Z,15.73
2023-09-29T05:53:50.147Z,15.20
2023-09-29T05:56:17.737Z,17.50
2023-09-29T05:58:45.309Z,15.03
2023-09-29T06:01:14.889Z,17.47
2023-09-29T06:03:42.763Z,15.67
2023-09-29T06:06:11.074Z,15.10
2023-09-29T06:11:10.820Z,17.80
2023-09-29T06:13:38.967Z,14.10
2023-09-29T06:16:07.058Z,17.03
2023-09-29T06:18:34.866Z,16.27
2023-09-29T06:21:02.683Z,19.70
2023-09-29T06:23:30.445Z,14.33
2023-09-29T06:25:59.992Z,16.83
2023-09-29T06:28:27.682Z,15.37
2023-09-29T06:30:57.347Z,15.60
2023-09-29T06:33:25.140Z,15.33
2023-09-29T06:35:54.168Z,15.60
2023-09-29T06:38:21.876Z,15.13
2023-09-29T06:40:49.518Z,17.07
2023-09-29T06:43:18.628Z,15.20
2023-09-29T06:48:20.629Z,15.13
2023-09-29T06:50:48.581Z,14.90
2023-09-29T06:53:16.252Z,12.77
2023-09-29T06:55:43.956Z,17.40
2023-09-29T06:58:11.708Z,13.40
2023-09-29T07:00:40.792Z,12.53
2023-09-29T07:03:13.774Z,11.90
2023-09-29T07:05:41.749Z,14.63
2023-09-29T07:08:09.418Z,14.40
2023-09-29T07:10:37.101Z,11.93
2023-09-29T07:13:05.012Z,13.00
2023-09-29T07:15:32.658Z,13.73
2023-09-29T07:18:01.821Z,12.40
2023-09-29T07:20:29.706Z,13.33
2023-09-29T07:22:57.373Z,12.30
2023-09-29T07:25:25.073Z,17.77
2023-09-29T07:27:52.865Z,16.90
2023-09-29T07:30:20.617Z,11.23
2023-09-29T07:32:48.379Z,14.47
2023-09-29T07:35:17.726Z,11.90
2023-09-29T07:37:45.365Z,14.33
2023-09-29T07:40:13.694Z,12.10
2023-09-29T07:42:41.484Z,15.67
2023-09-29T07:45:10.529Z,14.53
2023-09-29T07:47:43.972Z,15.20
2023-09-29T07:50:12.059Z,13.13
2023-09-29T07:52:41.230Z,13.83
2023-09-29T07:55:10.820Z,12.73
2023-09-29T07:57:38.723Z,13.73
2023-09-29T08:00:10.249Z,12.03
2023-09-29T08:02:41.336Z,13.37
2023-09-29T08:05:10.166Z,11.20
2023-09-29T08:07:37.752Z,10.73
2023-09-29T08:10:09.184Z,13.77
2023-09-29T08:12:37.151Z,11.90
2023-09-29T08:15:06.910Z,12.90
2023-09-29T08:17:35.347Z,16.00
2023-09-29T08:20:06.494Z,13.40
2023-09-29T08:22:40.585Z,12.13
2023-09-29T08:25:12.643Z,12.33
2023-09-29T08:27:40.778Z,12.67
2023-09-29T08:30:10.328Z,12.43
2023-09-29T08:32:40.109Z,11.17
2023-09-29T08:35:08.994Z,11.57
2023-09-29T08:37:36.611Z,16.13
2023-09-29T08:40:05.065Z,12.03
2023-09-29T08:42:38.294Z,11.67
2023-09-29T08:45:10.411Z,12.53
2023-09-29T08:47:39.031Z,12.10
2023-09-29T08:50:09.880Z,17.30
2023-09-29T08:52:38.277Z,10.80
2023-09-29T08:55:06.721Z,19.20
2023-09-29T08:57:35.803Z,12.10
2023-09-29T09:00:05.590Z,13.13
2023-09-29T09:02:33.307Z,10.80
2023-09-29T09:05:00.915Z,11.97
2023-09-29T09:07:28.763Z,11.57
2023-09-29T09:09:58.380Z,13.73
2023-09-29T09:12:34.029Z,9.90
2023-09-29T09:15:05.444Z,12.60
2023-09-29T09:17:35.357Z,12.50
2023-09-29T09:20:04.012Z,13.03
2023-09-29T09:22:43.490Z,9.60
2023-09-29T09:25:14.034Z,11.37
2023-09-29T09:27:43.347Z,11.40
2023-09-29T09:30:24.389Z,10.50
2023-09-29T09:32:53.365Z,11.43
2023-09-29T09:35:28.724Z,11.30
2023-09-29T09:37:58.229Z,10.27
2023-09-29T09:40:26.477Z,11.90
2023-09-29T09:42:55.462Z,12.03
2023-09-29T09:45:26.995Z,11.50
2023-09-29T09:47:58.413Z,11.93
2023-09-29T09:50:29.411Z,10.80
2023-09-29T09:52:57.418Z,10.30
2023-09-29T09:55:34.916Z,11.50
2023-09-29T09:58:08.404Z,11.00
2023-09-29T10:00:38.335Z,10.27
2023-09-29T10:03:12.591Z,11.93
2023-09-29T10:05:43.142Z,13.77
2023-09-29T10:08:11.966Z,13.50
2023-09-29T10:10:41.301Z,9.70
2023-09-29T10:13:13.005Z,12.57
2023-09-29T10:15:42.899Z,9.37
2023-09-29T10:18:19.049Z,13.07
2023-09-29T10:20:49.275Z,12.97
2023-09-29T10:23:17.252Z,11.37
2023-09-29T10:25:57.401Z,9.33
2023-09-29T10:28:32.324Z,10.20
2023-09-29T10:31:09.541Z,13.37
2023-09-29T10:33:54.939Z,11.57
2023-09-29T10:36:24.474Z,9.23
2023-09-29T10:38:52.967Z,12.00
2023-09-29T10:41:34.220Z,13.90
2023-09-29T10:44:04.850Z,11.00
2023-09-29T10:46:33.972Z,12.73
2023-09-29T10:49:02.198Z,11.83
2023-09-29T10:51:32.264Z,18.00
2023-09-29T10:54:03.762Z,10.20
2023-09-29T10:56:31.656Z,11.03
2023-09-29T10:59:00.873Z,10.27
2023-09-29T11:01:33.753Z,9.17
2023-09-29T11:04:04.911Z,9.90
2023-09-29T11:06:32.694Z,11.57
2023-09-29T11:09:02.009Z,10.10
2023-09-29T11:11:35.336Z,10.20
2023-09-29T11:14:05.610Z,13.23
2023-09-29T11:16:34.244Z,9.47
2023-09-29T11:19:12.785Z,11.83
2023-09-29T11:21:42.001Z,10.37
2023-09-29T11:24:11.811Z,9.60
2023-09-29T11:26:44.681Z,10.00
2023-09-29T11:29:21.914Z,9.10
2023-09-29T11:31:49.836Z,10.23
2023-09-29T11:34:18.842Z,11.90
2023-09-29T11:36:46.643Z,9.17
2023-09-29T11:39:18.106Z,8.87
2023-09-29T11:41:46.520Z,11.27
2023-09-29T11:44:14.588Z,9.00
2023-09-29T11:46:42.165Z,13.43
2023-09-29T11:49:09.738Z,9.63
2023-09-29T11:51:38.669Z,9.60
2023-09-29T11:54:06.910Z,10.13
2023-09-29T11:56:35.193Z,10.00
2023-09-29T11:59:02.808Z,11.00
2023-09-29T12:01:30.520Z,9.30
2023-09-29T12:03:59.277Z,11.20
2023-09-29T12:06:27.840Z,9.60
2023-09-29T12:08:57.083Z,10.37
2023-09-29T12:11:25.226Z,10.90
2023-09-29T12:13:52.876Z,18.03
2023-09-29T12:16:20.539Z,13.37
2023-09-29T12:18:48.376Z,9.70
2023-09-29T12:21:16.128Z,9.67
2023-09-29T12:23:43.844Z,10.70
2023-09-29T12:26:12.842Z,8.50
2023-09-29T12:28:40.641Z,9.50
2023-09-29T12:31:16.137Z,9.60
2023-09-29T12:33:46.110Z,12.87
2023-09-29T12:36:18.933Z,11.73
2023-09-29T12:38:46.654Z,9.10
2023-09-29T12:41:16.631Z,11.87
2023-09-29T12:43:44.944Z,9.47
2023-09-29T12:46:12.646Z,11.93
2023-09-29T12:48:40.638Z,8.23
2023-09-29T12:51:08.411Z,8.67
2023-09-29T12:53:36.149Z,11.03
2023-09-29T12:56:03.751Z,9.40
2023-09-29T12:58:32.705Z,7.90
2023-09-29T13:01:00.433Z,10.03
2023-09-29T13:03:28.700Z,13.43
2023-09-29T13:06:00.455Z,9.60
2023-09-29T13:08:28.342Z,10.10
2023-09-29T13:10:56.721Z,11.40
2023-09-29T13:13:24.898Z,8.00
2023-09-29T13:15:54.383Z,9.43
2023-09-29T13:18:22.089Z,9.97
2023-09-29T13:20:50.651Z,10.07
2023-09-29T13:23:18.601Z,10.87
2023-09-29T13:25:46.466Z,10.13
2023-09-29T13:28:14.053Z,11.50
2023-09-29T13:30:53.987Z,11.53
2023-09-29T13:33:28.146Z,8.97
2023-09-29T13:35:56.573Z,8.43
2023-09-29T13:38:24.287Z,7.70
2023-09-29T13:40:54.270Z,11.37
2023-09-29T13:43:22.149Z,10.27
2023-09-29T13:45:50.967Z,11.70
2023-09-29T13:48:22.623Z,11.33
2023-09-29T13:50:52.679Z,11.73
2023-09-29T13:53:20.464Z,9.53
2023-09-29T13:55:48.693Z,10.43
2023-09-29T13:58:16.254Z,8.00
2023-09-29T14:00:44.417Z,10.20
2023-09-29T14:03:12.461Z,9.40
2023-09-29T14:05:42.561Z,8.13
2023-09-29T14:08:11.530Z,9.10
2023-09-29T14:10:39.348Z,10.63
2023-09-29T14:13:07.047Z,12.37
2023-09-29T14:15:34.745Z,11.67
2023-09-29T14:18:02.412Z,8.67
2023-09-29T14:20:34.955Z,9.50
2023-09-29T14:23:03.280Z,8.47
2023-09-29T14:25:32.412Z,10.30
2023-09-29T14:28:00.007Z,8.10
2023-09-29T14:30:28.803Z,9.50
2023-09-29T14:32:57.177Z,9.03
2023-09-29T14:35:30.984Z,13.70
2023-09-29T14:38:10.364Z,9.07
2023-09-29T14:40:39.772Z,11.30
2023-09-29T14:43:07.362Z,11.73
2023-09-29T14:45:35.265Z,9.23
2023-09-29T14:48:05.464Z,10.73
2023-09-29T14:50:33.185Z,9.87
2023-09-29T14:53:01.363Z,10.20
2023-09-29T14:55:29.538Z,13.33
2023-09-29T14:57:58.619Z,16.47
2023-09-29T15:00:27.526Z,10.93
2023-09-29T15:02:55.521Z,11.90
2023-09-29T15:05:23.207Z,10.27
2023-09-29T15:07:50.902Z,10.23
2023-09-29T15:10:18.475Z,12.10
2023-09-29T15:12:46.053Z,12.33
2023-09-29T15:15:15.247Z,15.17
2023-09-29T15:17:42.863Z,12.97
2023-09-29T15:20:11.924Z,11.07
2023-09-29T15:22:39.584Z,11.00
2023-09-29T15:25:11.017Z,10.40
2023-09-29T15:27:38.706Z,12.23
2023-09-29T15:30:07.719Z,13.77
2023-09-29T15:32:36.758Z,8.90
2023-09-29T15:35:04.677Z,9.60
2023-09-29T15:37:32.324Z,11.33
2023-09-29T15:39:59.985Z,12.07
2023-09-29T15:42:28.443Z,15.00
2023-09-29T15:44:57.886Z,11.60
2023-09-29T15:47:26.955Z,16.93
2023-09-29T15:49:56.628Z,10.60
2023-09-29T15:52:24.265Z,14.13
2023-09-29T15:54:51.919Z,11.00
2023-09-29T15:57:19.528Z,11.50
2023-09-29T15:59:47.563Z,8.73
2023-09-29T16:02:25.283Z,10.10
2023-09-29T16:04:54.593Z,13.27
2023-09-29T16:07:23.846Z,11.90
2023-09-29T16:09:53.203Z,12.97
2023-09-29T16:12:20.811Z,10.47
2023-09-29T16:14:48.540Z,11.63
2023-09-29T16:17:16.607Z,13.13
2023-09-29T16:19:44.191Z,8.80
2023-09-29T16:22:11.976Z,9.20
2023-09-29T16:24:43.610Z,12.47
2023-09-29T16:27:11.419Z,12.30
2023-09-29T16:29:39.746Z,13.67
2023-09-29T16:32:17.078Z,13.80
2023-09-29T16:34:53.323Z,15.70
2023-09-29T16:37:20.983Z,11.20
2023-09-29T16:39:50.238Z,11.20
2023-09-29T16:42:18.046Z,8.70
2023-09-29T16:44:46.794Z,10.77
2023-09-29T16:47:14.436Z,8.60
2023-09-29T16:49:42.236Z,8.83
2023-09-29T16:52:09.860Z,8.60
2023-09-29T16:54:38.132Z,10.07
2023-09-29T16:57:07.250Z,12.00
2023-09-29T16:59:34.943Z,10.23
2023-09-29T17:02:02.540Z,14.90
2023-09-29T17:04:30.334Z,10.00
2023-09-29T17:06:58.381Z,12.20
2023-09-29T17:09:26.049Z,11.97
2023-09-29T17:11:53.752Z,11.90
2023-09-29T17:14:22.847Z,15.33
2023-09-29T17:16:50.521Z,13.40
2023-09-29T17:19:18.169Z,9.47
2023-09-29T17:21:45.835Z,7.90
2023-09-29T17:24:13.573Z,9.80
2023-09-29T17:26:41.199Z,8.40
2023-09-29T17:29:09.379Z,7.37
2023-09-29T17:31:38.607Z,7.10
2023-09-29T17:34:07.699Z,8.63
2023-09-29T17:36:35.308Z,7.83
2023-09-29T17:39:03.037Z,9.63
2023-09-29T17:41:30.700Z,11.30
2023-09-29T17:43:58.493Z,9.90
2023-09-29T17:46:26.347Z,7.20
2023-09-29T17:48:56.173Z,6.43
2023-09-29T17:51:24.138Z,8.00
2023-09-29T17:53:52.360Z,7.30
2023-09-29T17:56:20.051Z,6.30
2023-09-29T17:58:47.667Z,6.97
2023-09-29T18:01:15.341Z,7.50
2023-09-29T18:03:43.339Z,11.47
2023-09-29T18:06:13.932Z,7.60
2023-09-29T18:08:42.360Z,8.37
2023-09-29T18:11:10.060Z,8.03
2023-09-29T18:13:38.040Z,6.70
2023-09-29T18:16:07.587Z,8.20
2023-09-29T18:18:35.338Z,8.47
2023-09-29T18:21:03.086Z,7.33
2023-09-29T18:23:32.192Z,6.67
2023-09-29T18:25:59.888Z,7.70
2023-09-29T18:28:27.517Z,7.20
2023-09-29T18:30:55.196Z,14.40
2023-09-29T18:33:23.752Z,5.70
2023-09-29T18:35:51.762Z,7.70
2023-09-29T18:38:19.426Z,5.63
2023-09-29T18:40:48.443Z,5.50
2023-09-29T18:43:16.162Z,6.20
2023-09-29T18:45:43.829Z,6.93
2023-09-29T18:48:11.490Z,6.33
2023-09-29T18:50:41.779Z,5.40
2023-09-29T18:53:10.882Z,5.70
2023-09-29T18:55:42.704Z,6.00
2023-09-29T18:58:12.222Z,5.80
2023-09-29T19:00:41.208Z,5.40
2023-09-29T19:03:09.098Z,6.53
2023-09-29T19:05:38.824Z,6.20
2023-09-29T19:08:06.926Z,6.50
2023-09-29T19:10:36.777Z,5.70
2023-09-29T19:13:04.679Z,6.20
2023-09-29T19:15:33.734Z,6.30
2023-09-29T19:18:01.648Z,6.00
2023-09-29T19:20:31.339Z,8.43
2023-09-29T19:22:58.972Z,6.73
2023-09-29T19:25:26.661Z,7.20
2023-09-29T19:27:54.419Z,6.10
2023-09-29T19:30:22.535Z,7.10
2023-09-29T19:32:51.599Z,7.17
2023-09-29T19:35:19.402Z,6.53
2023-09-29T19:37:47.159Z,5.90
2023-09-29T19:40:16.470Z,6.97
2023-09-29T19:42:44.182Z,8.00
2023-09-29T19:45:12.800Z,8.90
2023-09-29T19:47:41.013Z,7.33
2023-09-29T19:50:10.918Z,7.23
2023-09-29T19:52:38.615Z,7.20
2023-09-29T19:55:09.784Z,7.23
2023-09-29T19:57:37.955Z,7.40
2023-09-29T20:00:06.745Z,7.10
2023-09-29T20:02:40.065Z,9.53
2023-09-29T20:05:13.693Z,6.20
2023-09-29T20:07:41.384Z,6.37
2023-09-29T20:10:11.012Z,8.17
2023-09-29T20:12:42.863Z,7.40
2023-09-29T20:15:13.308Z,6.70
2023-09-29T20:17:40.990Z,10.10
2023-09-29T20:20:12.870Z,6.57
2023-09-29T20:22:40.501Z,8.07
2023-09-29T20:25:10.899Z,7.60
2023-09-29T20:27:38.605Z,8.00
2023-09-29T20:30:07.630Z,7.87
2023-09-29T20:32:35.410Z,9.23
2023-09-29T20:35:03.162Z,7.97
2023-09-29T20:37:32.171Z,14.67
2023-09-29T20:40:01.333Z,7.23
2023-09-29T20:42:29.079Z,10.00
2023-09-29T20:44:56.924Z,8.87
2023-09-29T20:47:24.626Z,8.00
2023-09-29T20:49:52.270Z,7.53
2023-09-29T20:52:19.920Z,11.17
2023-09-29T20:54:48.912Z,8.50
2023-09-29T20:57:16.751Z,7.87
2023-09-29T20:59:44.380Z,12.27
2023-09-29T21:02:12.022Z,9.73
2023-09-29T21:04:39.755Z,8.27
2023-09-29T21:07:07.358Z,10.30
2023-09-29T21:09:35.484Z,8.13
2023-09-29T21:12:04.814Z,8.67
2023-09-29T21:14:34.388Z,11.90
2023-09-29T21:17:02.285Z,9.50
2023-09-29T21:19:30.655Z,9.93
2023-09-29T21:21:58.435Z,13.47
2023-09-29T21:24:26.161Z,9.60
2023-09-29T21:26:53.886Z,15.23
2023-09-29T21:29:24.026Z,9.00
2023-09-29T21:31:52.659Z,12.17
2023-09-29T21:34:20.562Z,9.47
2023-09-29T21:36:48.369Z,10.07
2023-09-29T21:39:16.067Z,9.70
2023-09-29T21:41:45.034Z,8.13
2023-09-29T21:44:14.343Z,12.00
2023-09-29T21:46:43.701Z,13.33
2023-09-29T21:49:12.214Z,9.57
2023-09-29T21:51:41.053Z,9.57
2023-09-29T21:54:12.722Z,8.97
2023-09-29T21:56:40.422Z,9.63
2023-09-29T21:59:08.082Z,11.60
2023-09-29T22:01:36.120Z,13.73
2023-09-29T22:04:05.723Z,11.17
2023-09-29T22:06:34.472Z,12.40
2023-09-29T22:09:02.307Z,9.70
2023-09-29T22:11:31.079Z,8.80
2023-09-29T22:13:58.919Z,11.93
2023-09-29T22:16:26.722Z,14.30
2023-09-29T22:18:54.453Z,12.73
2023-09-29T22:21:23.676Z,10.67
2023-09-29T22:23:52.165Z,11.83
2023-09-29T22:26:23.396Z,14.70
2023-09-29T22:28:51.861Z,9.90
2023-09-29T22:31:19.901Z,13.33
2023-09-29T22:33:47.922Z,13.70
2023-09-29T22:36:15.917Z,12.77
2023-09-29T22:38:45.234Z,10.23
2023-09-29T22:41:15.781Z,9.50
2023-09-29T22:43:43.797Z,10.07
2023-09-29T22:46:11.619Z,10.63
2023-09-29T22:48:39.401Z,13.03
2023-09-29T22:51:07.533Z,8.57
2023-09-29T22:53:36.086Z,16.33
2023-09-29T22:56:12.890Z,10.50
2023-09-29T22:58:42.086Z,13.07
2023-09-29T23:01:09.981Z,11.53
2023-09-29T23:03:38.459Z,10.30
2023-09-29T23:06:08.054Z,15.53
2023-09-29T23:08:36.020Z,9.93
2023-09-29T23:11:03.743Z,11.07
2023-09-29T23:13:32.713Z,11.40
2023-09-29T23:16:01.335Z,11.43
2023-09-29T23:18:29.471Z,12.03
2023-09-29T23:20:57.404Z,9.30
2023-09-29T23:23:25.698Z,11.20
2023-09-29T23:25:53.335Z,12.20
2023-09-29T23:28:21.345Z,13.67
2023-09-29T23:30:50.984Z,12.80
2023-09-29T23:33:19.295Z,9.83
2023-09-29T23:35:47.917Z,12.70
2023-09-29T23:38:15.586Z,13.43
2023-09-29T23:40:43.269Z,9.67
2023-09-29T23:43:11.358Z,11.60
2023-09-29T23:45:39.025Z,12.43
2023-09-29T23:48:08.926Z,12.07
2023-09-29T23:50:36.738Z,14.93
2023-09-29T23:53:04.705Z,17.07
2023-09-29T23:55:34.150Z,10.53
2023-09-29T23:58:02.109Z,11.90
